sensor_id;sensor_type;location;lat;lon;timestamp;pressure;altitude;pressure_sealevel;temperature;humidity
53546;BME280;39432;51.902;10.844;2023-01-25T00:02:28;101693.19;;;1.28;100.00
53546;BME280;39432;51.902;10.844;2023-01-25T00:04:58;101681.47;;;0.91;100.00
53546;BME280;39432;51.902;10.844;2023-01-25T00:07:28;101685.34;;;1.35;100.00
53546;BME280;39432;51.902;10.844;2023-01-25T00:09:57;101677.22;;;1.54;100.00
53546;BME280;39432;51.902;10.844;2023-01-25T00:12:27;101660.28;;;1.15;100.00
53546;BME280;39432;51.902;10.844;2023-01-25T00:14:56;101663.84;;;1.16;100.00
53546;BME280;39432;51.902;10.844;2023-01-25T00:17:29;101660.31;;;0.96;100.00
53546;BME280;39432;51.902;10.844;2023-01-25T00:19:58;101659.78;;;0.83;100.00
53546;BME280;39432;51.902;10.844;2023-01-25T00:22:28;101659.06;;;0.81;100.00
53546;BME280;39432;51.902;10.844;2023-01-25T00:24:58;101666.41;;;1.08;100.00
53546;BME280;39432;51.902;10.844;2023-01-25T00:27:27;101655.88;;;1.24;100.00
53546;BME280;39432;51.902;10.844;2023-01-25T00:29:57;101657.31;;;1.18;100.00
53546;BME280;39432;51.902;10.844;2023-01-25T00:32:36;101651.94;;;0.99;100.00
53546;BME280;39432;51.902;10.844;2023-01-25T00:35:10;101653.88;;;1.26;100.00
53546;BME280;39432;51.902;10.844;2023-01-25T00:37:42;101652.56;;;1.40;100.00
53546;BME280;39432;51.902;10.844;2023-01-25T00:40:12;101643.16;;;1.07;100.00
53546;BME280;39432;51.902;10.844;2023-01-25T00:42:42;101651.13;;;0.69;100.00
53546;BME280;39432;51.902;10.844;2023-01-25T00:45:11;101647.53;;;0.98;100.00
53546;BME280;39432;51.902;10.844;2023-01-25T00:47:43;101644.00;;;0.88;100.00
53546;BME280;39432;51.902;10.844;2023-01-25T00:50:14;101643.19;;;0.48;100.00
53546;BME280;39432;51.902;10.844;2023-01-25T00:52:44;101642.06;;;0.51;100.00
53546;BME280;39432;51.902;10.844;2023-01-25T00:55:13;101646.47;;;0.52;100.00
53546;BME280;39432;51.902;10.844;2023-01-25T00:57:43;101640.66;;;0.47;100.00
53546;BME280;39432;51.902;10.844;2023-01-25T01:00:14;101646.28;;;0.15;100.00
53546;BME280;39432;51.902;10.844;2023-01-25T01:02:47;101648.00;;;0.25;100.00
53546;BME280;39432;51.902;10.844;2023-01-25T01:05:17;101649.16;;;0.42;100.00
53546;BME280;39432;51.902;10.844;2023-01-25T01:07:48;101644.34;;;0.46;100.00
53546;BME280;39432;51.902;10.844;2023-01-25T01:10:18;101640.81;;;0.55;100.00
53546;BME280;39432;51.902;10.844;2023-01-25T01:12:50;101648.88;;;0.55;100.00
53546;BME280;39432;51.902;10.844;2023-01-25T01:15:20;101648.81;;;-0.03;100.00
53546;BME280;39432;51.902;10.844;2023-01-25T01:17:52;101656.53;;;0.50;100.00
53546;BME280;39432;51.902;10.844;2023-01-25T01:20:22;101656.22;;;0.43;100.00
53546;BME280;39432;51.902;10.844;2023-01-25T01:22:52;101661.47;;;0.74;100.00
53546;BME280;39432;51.902;10.844;2023-01-25T01:25:22;101652.25;;;0.38;100.00
53546;BME280;39432;51.902;10.844;2023-01-25T01:27:52;101643.75;;;0.91;100.00
53546;BME280;39432;51.902;10.844;2023-01-25T01:30:22;101656.25;;;1.39;100.00
53546;BME280;39432;51.902;10.844;2023-01-25T01:32:56;101642.19;;;0.59;100.00
53546;BME280;39432;51.902;10.844;2023-01-25T01:35:27;101645.94;;;1.24;100.00
53546;BME280;39432;51.902;10.844;2023-01-25T01:37:57;101639.75;;;1.04;100.00
53546;BME280;39432;51.902;10.844;2023-01-25T01:40:26;101637.06;;;0.95;100.00
53546;BME280;39432;51.902;10.844;2023-01-25T01:42:58;101632.31;;;0.50;100.00
53546;BME280;39432;51.902;10.844;2023-01-25T01:46:00;101619.09;;;0.66;100.00
53546;BME280;39432;51.902;10.844;2023-01-25T01:48:39;101623.00;;;1.11;100.00
53546;BME280;39432;51.902;10.844;2023-01-25T01:51:15;101613.56;;;0.58;100.00
53546;BME280;39432;51.902;10.844;2023-01-25T01:53:50;101595.03;;;0.45;100.00
53546;BME280;39432;51.902;10.844;2023-01-25T01:56:25;101600.94;;;0.10;100.00
53546;BME280;39432;51.902;10.844;2023-01-25T01:59:00;101601.25;;;0.46;100.00
53546;BME280;39432;51.902;10.844;2023-01-25T02:01:33;101604.66;;;0.58;100.00
53546;BME280;39432;51.902;10.844;2023-01-25T02:04:06;101602.78;;;1.24;100.00
53546;BME280;39432;51.902;10.844;2023-01-25T02:06:41;101586.47;;;0.89;100.00
53546;BME280;39432;51.902;10.844;2023-01-25T02:09:18;101577.53;;;0.78;100.00
53546;BME280;39432;51.902;10.844;2023-01-25T02:11:50;101569.38;;;0.61;100.00
53546;BME280;39432;51.902;10.844;2023-01-25T02:14:21;101569.47;;;0.78;100.00
53546;BME280;39432;51.902;10.844;2023-01-25T02:16:51;101565.69;;;0.99;100.00
53546;BME280;39432;51.902;10.844;2023-01-25T02:19:33;101560.38;;;0.79;100.00
53546;BME280;39432;51.902;10.844;2023-01-25T02:22:08;101551.00;;;0.84;100.00
53546;BME280;39432;51.902;10.844;2023-01-25T02:24:47;101547.59;;;0.91;100.00
53546;BME280;39432;51.902;10.844;2023-01-25T02:27:21;101539.28;;;0.65;100.00
53546;BME280;39432;51.902;10.844;2023-01-25T02:29:52;101533.91;;;1.12;100.00
53546;BME280;39432;51.902;10.844;2023-01-25T02:32:22;101521.00;;;0.59;100.00
53546;BME280;39432;51.902;10.844;2023-01-25T02:34:52;101523.25;;;0.73;100.00
53546;BME280;39432;51.902;10.844;2023-01-25T02:37:21;101518.09;;;0.33;100.00
53546;BME280;39432;51.902;10.844;2023-01-25T02:39:51;101527.22;;;0.69;100.00
53546;BME280;39432;51.902;10.844;2023-01-25T02:42:29;101520.00;;;0.60;100.00
53546;BME280;39432;51.902;10.844;2023-01-25T02:45:05;101516.88;;;0.65;100.00
53546;BME280;39432;51.902;10.844;2023-01-25T02:47:35;101524.16;;;1.01;100.00
53546;BME280;39432;51.902;10.844;2023-01-25T02:50:05;101512.66;;;0.62;100.00
53546;BME280;39432;51.902;10.844;2023-01-25T02:52:35;101516.25;;;0.90;100.00
53546;BME280;39432;51.902;10.844;2023-01-25T02:55:06;101510.22;;;0.59;100.00
53546;BME280;39432;51.902;10.844;2023-01-25T02:57:41;101511.66;;;0.63;100.00
53546;BME280;39432;51.902;10.844;2023-01-25T03:00:14;101515.81;;;0.95;100.00
53546;BME280;39432;51.902;10.844;2023-01-25T03:02:45;101511.72;;;0.81;100.00
53546;BME280;39432;51.902;10.844;2023-01-25T03:05:14;101507.31;;;0.90;100.00
53546;BME280;39432;51.902;10.844;2023-01-25T03:07:44;101510.19;;;0.78;100.00
53546;BME280;39432;51.902;10.844;2023-01-25T03:10:14;101508.41;;;0.97;100.00
53546;BME280;39432;51.902;10.844;2023-01-25T03:12:46;101511.50;;;1.02;100.00
53546;BME280;39432;51.902;10.844;2023-01-25T03:15:16;101508.78;;;0.74;100.00
53546;BME280;39432;51.902;10.844;2023-01-25T03:17:45;101506.34;;;0.05;100.00
53546;BME280;39432;51.902;10.844;2023-01-25T03:20:16;101503.06;;;0.40;100.00
53546;BME280;39432;51.902;10.844;2023-01-25T03:22:46;101515.56;;;0.88;100.00
53546;BME280;39432;51.902;10.844;2023-01-25T03:25:16;101515.72;;;1.14;100.00
53546;BME280;39432;51.902;10.844;2023-01-25T03:27:56;101515.25;;;0.15;100.00
53546;BME280;39432;51.902;10.844;2023-01-25T03:30:26;101510.47;;;0.75;100.00
53546;BME280;39432;51.902;10.844;2023-01-25T03:32:56;101506.28;;;0.44;100.00
53546;BME280;39432;51.902;10.844;2023-01-25T03:35:26;101511.97;;;0.97;100.00
53546;BME280;39432;51.902;10.844;2023-01-25T03:37:56;101512.44;;;0.83;100.00
53546;BME280;39432;51.902;10.844;2023-01-25T03:40:26;101509.22;;;0.60;100.00
53546;BME280;39432;51.902;10.844;2023-01-25T03:42:58;101506.22;;;0.83;100.00
53546;BME280;39432;51.902;10.844;2023-01-25T03:45:28;101493.25;;;1.23;100.00
53546;BME280;39432;51.902;10.844;2023-01-25T03:47:58;101490.25;;;1.54;100.00
53546;BME280;39432;51.902;10.844;2023-01-25T03:50:28;101494.06;;;1.06;100.00
53546;BME280;39432;51.902;10.844;2023-01-25T03:52:58;101486.97;;;1.33;100.00
53546;BME280;39432;51.902;10.844;2023-01-25T03:55:33;101487.41;;;1.55;100.00
53546;BME280;39432;51.902;10.844;2023-01-25T03:58:05;101478.81;;;1.42;100.00
53546;BME280;39432;51.902;10.844;2023-01-25T04:00:36;101468.56;;;1.28;100.00
53546;BME280;39432;51.902;10.844;2023-01-25T04:03:05;101467.88;;;1.44;100.00
53546;BME280;39432;51.902;10.844;2023-01-25T04:05:35;101466.50;;;1.12;100.00
53546;BME280;39432;51.902;10.844;2023-01-25T04:08:05;101471.94;;;1.30;100.00
53546;BME280;39432;51.902;10.844;2023-01-25T04:10:38;101466.91;;;0.43;100.00
53546;BME280;39432;51.902;10.844;2023-01-25T04:13:10;101451.63;;;1.08;100.00
53546;BME280;39432;51.902;10.844;2023-01-25T04:15:40;101452.50;;;1.54;100.00
53546;BME280;39432;51.902;10.844;2023-01-25T04:18:19;101450.31;;;1.75;100.00
53546;BME280;39432;51.902;10.844;2023-01-25T04:20:51;101444.81;;;0.76;100.00
53546;BME280;39432;51.902;10.844;2023-01-25T04:23:22;101441.44;;;1.02;100.00
53546;BME280;39432;51.902;10.844;2023-01-25T04:25:52;101441.69;;;1.09;100.00
53546;BME280;39432;51.902;10.844;2023-01-25T04:28:25;101433.06;;;1.05;100.00
53546;BME280;39432;51.902;10.844;2023-01-25T04:30:55;101426.03;;;0.94;100.00
53546;BME280;39432;51.902;10.844;2023-01-25T04:33:32;101422.78;;;0.91;100.00
53546;BME280;39432;51.902;10.844;2023-01-25T04:36:02;101422.09;;;0.61;100.00
53546;BME280;39432;51.902;10.844;2023-01-25T04:38:32;101420.19;;;1.26;100.00
53546;BME280;39432;51.902;10.844;2023-01-25T04:41:01;101407.25;;;0.75;100.00
53546;BME280;39432;51.902;10.844;2023-01-25T04:43:34;101408.88;;;0.95;100.00
53546;BME280;39432;51.902;10.844;2023-01-25T04:46:08;101413.84;;;0.63;100.00
53546;BME280;39432;51.902;10.844;2023-01-25T04:48:39;101414.13;;;0.60;100.00
53546;BME280;39432;51.902;10.844;2023-01-25T04:51:08;101399.19;;;0.38;100.00
53546;BME280;39432;51.902;10.844;2023-01-25T04:53:40;101402.34;;;0.33;100.00
53546;BME280;39432;51.902;10.844;2023-01-25T04:56:10;101398.22;;;1.21;100.00
53546;BME280;39432;51.902;10.844;2023-01-25T04:58:55;101382.63;;;-0.14;100.00
53546;BME280;39432;51.902;10.844;2023-01-25T05:01:25;101392.59;;;0.60;100.00
53546;BME280;39432;51.902;10.844;2023-01-25T05:03:55;101389.97;;;0.77;100.00
53546;BME280;39432;51.902;10.844;2023-01-25T05:06:33;101384.88;;;-0.19;100.00
53546;BME280;39432;51.902;10.844;2023-01-25T05:09:02;101396.44;;;0.85;100.00
53546;BME280;39432;51.902;10.844;2023-01-25T05:11:33;101380.94;;;-0.25;100.00
53546;BME280;39432;51.902;10.844;2023-01-25T05:14:09;101388.03;;;0.60;100.00
53546;BME280;39432;51.902;10.844;2023-01-25T05:16:41;101395.53;;;0.29;100.00
53546;BME280;39432;51.902;10.844;2023-01-25T05:19:10;101387.13;;;0.42;100.00
53546;BME280;39432;51.902;10.844;2023-01-25T05:21:48;101390.03;;;0.21;100.00
53546;BME280;39432;51.902;10.844;2023-01-25T05:24:33;101400.94;;;0.19;100.00
53546;BME280;39432;51.902;10.844;2023-01-25T05:27:06;101393.06;;;-0.11;100.00
53546;BME280;39432;51.902;10.844;2023-01-25T05:29:55;101396.91;;;-0.33;100.00
53546;BME280;39432;51.902;10.844;2023-01-25T05:32:37;101387.72;;;-0.31;100.00
53546;BME280;39432;51.902;10.844;2023-01-25T05:35:08;101399.28;;;0.09;100.00
53546;BME280;39432;51.902;10.844;2023-01-25T05:37:38;101400.94;;;0.19;100.00
53546;BME280;39432;51.902;10.844;2023-01-25T05:40:14;101394.13;;;0.25;100.00
53546;BME280;39432;51.902;10.844;2023-01-25T05:42:44;101395.84;;;0.63;100.00
53546;BME280;39432;51.902;10.844;2023-01-25T05:45:19;101389.16;;;0.67;100.00
53546;BME280;39432;51.902;10.844;2023-01-25T05:47:51;101388.31;;;0.67;100.00
53546;BME280;39432;51.902;10.844;2023-01-25T05:50:21;101386.25;;;-0.06;100.00
53546;BME280;39432;51.902;10.844;2023-01-25T05:52:57;101386.69;;;-0.01;100.00
53546;BME280;39432;51.902;10.844;2023-01-25T05:55:28;101379.03;;;0.05;100.00
53546;BME280;39432;51.902;10.844;2023-01-25T05:58:02;101373.31;;;-0.49;100.00
53546;BME280;39432;51.902;10.844;2023-01-25T06:00:35;101386.66;;;0.09;100.00
53546;BME280;39432;51.902;10.844;2023-01-25T06:03:04;101380.88;;;0.04;100.00
53546;BME280;39432;51.902;10.844;2023-01-25T06:05:37;101379.25;;;-0.16;100.00
53546;BME280;39432;51.902;10.844;2023-01-25T06:08:06;101382.28;;;0.08;100.00
53546;BME280;39432;51.902;10.844;2023-01-25T06:10:42;101375.78;;;0.01;100.00
53546;BME280;39432;51.902;10.844;2023-01-25T06:13:12;101377.75;;;0.09;100.00
53546;BME280;39432;51.902;10.844;2023-01-25T06:15:50;101370.72;;;-0.12;100.00
53546;BME280;39432;51.902;10.844;2023-01-25T06:18:55;101364.41;;;0.54;100.00
53546;BME280;39432;51.902;10.844;2023-01-25T06:21:34;101364.97;;;0.20;100.00
53546;BME280;39432;51.902;10.844;2023-01-25T06:24:05;101364.56;;;0.15;100.00
53546;BME280;39432;51.902;10.844;2023-01-25T06:26:34;101363.94;;;-0.16;100.00
53546;BME280;39432;51.902;10.844;2023-01-25T06:29:04;101354.88;;;-0.24;100.00
53546;BME280;39432;51.902;10.844;2023-01-25T06:31:36;101359.84;;;0.27;100.00
53546;BME280;39432;51.902;10.844;2023-01-25T06:34:06;101356.19;;;0.56;100.00
53546;BME280;39432;51.902;10.844;2023-01-25T06:36:35;101357.88;;;0.19;100.00
53546;BME280;39432;51.902;10.844;2023-01-25T06:39:05;101353.97;;;-0.06;100.00
53546;BME280;39432;51.902;10.844;2023-01-25T06:41:35;101359.78;;;0.46;100.00
53546;BME280;39432;51.902;10.844;2023-01-25T06:44:04;101356.81;;;-0.07;100.00
53546;BME280;39432;51.902;10.844;2023-01-25T06:46:36;101361.50;;;0.38;100.00
53546;BME280;39432;51.902;10.844;2023-01-25T06:49:06;101356.97;;;0.66;100.00
53546;BME280;39432;51.902;10.844;2023-01-25T06:51:36;101355.16;;;0.66;100.00
53546;BME280;39432;51.902;10.844;2023-01-25T06:54:05;101357.06;;;0.09;100.00
53546;BME280;39432;51.902;10.844;2023-01-25T06:56:35;101361.41;;;-0.37;100.00
53546;BME280;39432;51.902;10.844;2023-01-25T06:59:04;101364.44;;;0.07;100.00
53546;BME280;39432;51.902;10.844;2023-01-25T07:01:36;101361.50;;;0.38;100.00
53546;BME280;39432;51.902;10.844;2023-01-25T07:04:08;101350.03;;;0.36;100.00
53546;BME280;39432;51.902;10.844;2023-01-25T07:06:38;101356.81;;;-0.07;100.00
53546;BME280;39432;51.902;10.844;2023-01-25T07:09:09;101351.63;;;0.29;100.00
53546;BME280;39432;51.902;10.844;2023-01-25T07:11:39;101356.78;;;0.12;100.00
53546;BME280;39432;51.902;10.844;2023-01-25T07:14:09;101357.84;;;-0.28;100.00
53546;BME280;39432;51.902;10.844;2023-01-25T07:16:41;101348.66;;;-0.35;100.00
53546;BME280;39432;51.902;10.844;2023-01-25T07:19:11;101350.91;;;-0.20;100.00
53546;BME280;39432;51.902;10.844;2023-01-25T07:21:43;101349.91;;;0.00;100.00
53546;BME280;39432;51.902;10.844;2023-01-25T07:24:14;101342.03;;;-0.40;100.00
53546;BME280;39432;51.902;10.844;2023-01-25T07:26:45;101347.50;;;-0.22;100.00
53546;BME280;39432;51.902;10.844;2023-01-25T07:29:15;101339.03;;;-0.28;100.00
53546;BME280;39432;51.902;10.844;2023-01-25T07:31:47;101331.16;;;-0.58;100.00
53546;BME280;39432;51.902;10.844;2023-01-25T07:34:17;101334.53;;;-0.37;100.00
53546;BME280;39432;51.902;10.844;2023-01-25T07:36:47;101341.59;;;-0.36;100.00
53546;BME280;39432;51.902;10.844;2023-01-25T07:39:16;101339.06;;;-0.66;100.00
53546;BME280;39432;51.902;10.844;2023-01-25T07:41:46;101341.59;;;-0.36;100.00
53546;BME280;39432;51.902;10.844;2023-01-25T07:44:18;101338.06;;;-0.46;100.00
53546;BME280;39432;51.902;10.844;2023-01-25T07:46:52;101339.06;;;-0.66;100.00
53546;BME280;39432;51.902;10.844;2023-01-25T07:49:22;101337.91;;;-0.25;100.00
53546;BME280;39432;51.902;10.844;2023-01-25T07:51:52;101344.34;;;0.02;100.00
53546;BME280;39432;51.902;10.844;2023-01-25T07:54:21;101331.16;;;0.08;100.00
53546;BME280;39432;51.902;10.844;2023-01-25T07:56:51;101349.31;;;-0.04;100.00
53546;BME280;39432;51.902;10.844;2023-01-25T07:59:20;101339.50;;;0.05;100.00
53546;BME280;39432;51.902;10.844;2023-01-25T08:01:52;101336.19;;;-0.16;100.00
53546;BME280;39432;51.902;10.844;2023-01-25T08:04:22;101336.38;;;0.19;100.00
53546;BME280;39432;51.902;10.844;2023-01-25T08:06:52;101328.22;;;-0.08;100.00
53546;BME280;39432;51.902;10.844;2023-01-25T08:09:21;101331.16;;;-0.48;100.00
53546;BME280;39432;51.902;10.844;2023-01-25T08:11:51;101338.66;;;-0.52;100.00
53546;BME280;39432;51.902;10.844;2023-01-25T08:14:20;101333.41;;;-0.63;100.00
53546;BME280;39432;51.902;10.844;2023-01-25T08:16:53;101340.06;;;-0.48;100.00
53546;BME280;39432;51.902;10.844;2023-01-25T08:19:22;101344.78;;;-0.03;100.00
53546;BME280;39432;51.902;10.844;2023-01-25T08:21:52;101344.09;;;-0.05;100.00
53546;BME280;39432;51.902;10.844;2023-01-25T08:24:22;101336.50;;;-0.39;100.00
53546;BME280;39432;51.902;10.844;2023-01-25T08:26:51;101343.41;;;-0.17;100.00
53546;BME280;39432;51.902;10.844;2023-01-25T08:29:21;101336.66;;;-0.40;100.00
53546;BME280;39432;51.902;10.844;2023-01-25T08:31:56;101341.59;;;-0.36;100.00
53546;BME280;39432;51.902;10.844;2023-01-25T08:34:25;101338.06;;;-0.46;100.00
53546;BME280;39432;51.902;10.844;2023-01-25T08:36:56;101337.63;;;-0.22;100.00
53546;BME280;39432;51.902;10.844;2023-01-25T08:39:27;101339.59;;;-0.34;100.00
53546;BME280;39432;51.902;10.844;2023-01-25T08:41:56;101336.94;;;-0.53;100.00
53546;BME280;39432;51.902;10.844;2023-01-25T08:44:26;101337.34;;;-0.29;100.00
53546;BME280;39432;51.902;10.844;2023-01-25T08:46:58;101338.84;;;-0.07;100.00
53546;BME280;39432;51.902;10.844;2023-01-25T08:49:28;101333.53;;;-0.36;100.00
53546;BME280;39432;51.902;10.844;2023-01-25T08:52:00;101328.13;;;-0.16;100.00
53546;BME280;39432;51.902;10.844;2023-01-25T08:54:29;101322.41;;;-0.70;100.00
53546;BME280;39432;51.902;10.844;2023-01-25T08:57:00;101322.94;;;-0.47;100.00
53546;BME280;39432;51.902;10.844;2023-01-25T08:59:31;101319.22;;;-0.27;100.00
53546;BME280;39432;51.902;10.844;2023-01-25T09:02:04;101309.06;;;-0.33;100.00
53546;BME280;39432;51.902;10.844;2023-01-25T09:04:33;101312.44;;;-0.40;100.00
53546;BME280;39432;51.902;10.844;2023-01-25T09:07:03;101315.97;;;-0.20;100.00
53546;BME280;39432;51.902;10.844;2023-01-25T09:09:33;101317.44;;;0.66;100.00
53546;BME280;39432;51.902;10.844;2023-01-25T09:12:03;101313.38;;;-0.12;100.00
53546;BME280;39432;51.902;10.844;2023-01-25T09:14:33;101308.56;;;0.29;100.00
53546;BME280;39432;51.902;10.844;2023-01-25T09:17:08;101302.75;;;-0.04;100.00
53546;BME280;39432;51.902;10.844;2023-01-25T09:19:38;101297.84;;;0.19;100.00
53546;BME280;39432;51.902;10.844;2023-01-25T09:22:08;101291.41;;;-0.08;100.00
53546;BME280;39432;51.902;10.844;2023-01-25T09:24:37;101298.78;;;0.00;100.00
53546;BME280;39432;51.902;10.844;2023-01-25T09:27:07;101289.47;;;-0.15;100.00
53546;BME280;39432;51.902;10.844;2023-01-25T09:29:36;101292.94;;;-0.62;100.00
53546;BME280;39432;51.902;10.844;2023-01-25T09:32:14;101288.41;;;-0.42;100.00
53546;BME280;39432;51.902;10.844;2023-01-25T09:34:51;101297.13;;;-0.20;100.00
53546;BME280;39432;51.902;10.844;2023-01-25T09:37:20;101291.94;;;-0.51;100.00
53546;BME280;39432;51.902;10.844;2023-01-25T09:39:50;101288.94;;;-0.29;100.00
53546;BME280;39432;51.902;10.844;2023-01-25T09:42:34;101296.22;;;-0.02;100.00
53546;BME280;39432;51.902;10.844;2023-01-25T09:45:11;101298.31;;;-0.33;100.00
53546;BME280;39432;51.902;10.844;2023-01-25T09:47:50;101291.16;;;-0.05;100.00
53546;BME280;39432;51.902;10.844;2023-01-25T09:50:32;101287.25;;;-0.30;100.00
53546;BME280;39432;51.902;10.844;2023-01-25T09:53:31;101283.34;;;-0.08;100.00
53546;BME280;39432;51.902;10.844;2023-01-25T09:56:07;101275.56;;;-0.67;100.00
53546;BME280;39432;51.902;10.844;2023-01-25T09:58:42;101273.63;;;-0.28;100.00
53546;BME280;39432;51.902;10.844;2023-01-25T10:01:33;101281.53;;;0.20;100.00
53546;BME280;39432;51.902;10.844;2023-01-25T10:04:15;101276.78;;;-0.33;100.00
53546;BME280;39432;51.902;10.844;2023-01-25T10:06:48;101277.03;;;-0.16;100.00
53546;BME280;39432;51.902;10.844;2023-01-25T10:09:38;101279.31;;;-0.21;100.00
53546;BME280;39432;51.902;10.844;2023-01-25T10:12:14;101273.13;;;-0.51;100.00
53546;BME280;39432;51.902;10.844;2023-01-25T10:14:44;101285.88;;;-0.06;100.00
53546;BME280;39432;51.902;10.844;2023-01-25T10:17:20;101273.78;;;0.17;100.00
53546;BME280;39432;51.902;10.844;2023-01-25T10:20:08;101261.41;;;-0.03;100.00
53546;BME280;39432;51.902;10.844;2023-01-25T10:22:46;101256.25;;;0.04;100.00
53546;BME280;39432;51.902;10.844;2023-01-25T10:25:31;101252.69;;;-0.24;100.00
53546;BME280;39432;51.902;10.844;2023-01-25T10:28:27;101238.16;;;0.06;100.00
53546;BME280;39432;51.902;10.844;2023-01-25T10:31:04;101240.28;;;-0.35;100.00
53546;BME280;39432;51.902;10.844;2023-01-25T10:33:38;101231.31;;;0.11;100.00
53546;BME280;39432;51.902;10.844;2023-01-25T10:36:13;101219.75;;;0.01;100.00
53546;BME280;39432;51.902;10.844;2023-01-25T10:38:44;101222.34;;;0.20;100.00
53546;BME280;39432;51.902;10.844;2023-01-25T10:41:18;101215.97;;;-0.43;100.00
53546;BME280;39432;51.902;10.844;2023-01-25T10:43:50;101208.78;;;-0.15;100.00
53546;BME280;39432;51.902;10.844;2023-01-25T10:46:44;101199.81;;;-0.06;100.00
53546;BME280;39432;51.902;10.844;2023-01-25T10:49:20;101203.72;;;-0.28;100.00
53546;BME280;39432;51.902;10.844;2023-01-25T10:51:54;101206.63;;;-0.12;100.00
53546;BME280;39432;51.902;10.844;2023-01-25T10:54:23;101210.41;;;-0.32;100.00
53546;BME280;39432;51.902;10.844;2023-01-25T10:56:56;101201.06;;;-0.01;100.00
53546;BME280;39432;51.902;10.844;2023-01-25T10:59:27;101196.06;;;-0.60;100.00
53546;BME280;39432;51.902;10.844;2023-01-25T11:02:24;101186.41;;;-1.29;100.00
53546;BME280;39432;51.902;10.844;2023-01-25T11:05:27;101182.31;;;-0.57;100.00
53546;BME280;39432;51.902;10.844;2023-01-25T11:08:19;101185.09;;;-0.39;100.00
53546;BME280;39432;51.902;10.844;2023-01-25T11:10:51;101183.25;;;-0.95;100.00
53546;BME280;39432;51.902;10.844;2023-01-25T11:13:23;101179.41;;;-0.83;100.00
53546;BME280;39432;51.902;10.844;2023-01-25T11:16:13;101176.72;;;-0.73;100.00
53546;BME280;39432;51.902;10.844;2023-01-25T11:18:50;101167.47;;;-0.61;100.00
53546;BME280;39432;51.902;10.844;2023-01-25T11:21:20;101160.53;;;-0.54;100.00
53546;BME280;39432;51.902;10.844;2023-01-25T11:24:15;101157.22;;;-0.75;100.00
53546;BME280;39432;51.902;10.844;2023-01-25T11:26:46;101149.19;;;-0.48;100.00
53546;BME280;39432;51.902;10.844;2023-01-25T11:29:17;101137.75;;;-0.22;100.00
53546;BME280;39432;51.902;10.844;2023-01-25T11:31:48;101151.50;;;-0.25;100.00
53546;BME280;39432;51.902;10.844;2023-01-25T11:34:21;101146.00;;;-0.34;100.00
53546;BME280;39432;51.902;10.844;2023-01-25T11:37:11;101135.78;;;-0.20;100.00
53546;BME280;39432;51.902;10.844;2023-01-25T11:39:54;101129.06;;;0.11;100.00
53546;BME280;39432;51.902;10.844;2023-01-25T11:42:32;101122.47;;;0.23;100.00
53546;BME280;39432;51.902;10.844;2023-01-25T11:45:32;101106.38;;;-0.04;100.00
53546;BME280;39432;51.902;10.844;2023-01-25T11:48:21;101097.16;;;-0.29;100.00
53546;BME280;39432;51.902;10.844;2023-01-25T11:51:00;101097.19;;;-0.66;100.00
53546;BME280;39432;51.902;10.844;2023-01-25T11:53:49;101082.22;;;0.04;100.00
53546;BME280;39432;51.902;10.844;2023-01-25T11:56:32;101070.06;;;-0.18;100.00
53546;BME280;39432;51.902;10.844;2023-01-25T11:59:21;101069.09;;;0.01;100.00
53546;BME280;39432;51.902;10.844;2023-01-25T12:02:07;101064.19;;;0.14;100.00
53546;BME280;39432;51.902;10.844;2023-01-25T12:05:01;101057.75;;;-0.38;100.00
53546;BME280;39432;51.902;10.844;2023-01-25T12:07:50;101055.50;;;-0.98;100.00
53546;BME280;39432;51.902;10.844;2023-01-25T12:10:25;101047.66;;;-0.54;100.00
53546;BME280;39432;51.902;10.844;2023-01-25T12:13:04;101045.66;;;-0.52;100.00
53546;BME280;39432;51.902;10.844;2023-01-25T12:15:55;101040.66;;;-0.19;100.00
53546;BME280;39432;51.902;10.844;2023-01-25T12:18:46;101033.66;;;-0.12;100.00
53546;BME280;39432;51.902;10.844;2023-01-25T12:21:23;101029.53;;;0.11;100.00
53546;BME280;39432;51.902;10.844;2023-01-25T12:24:15;101016.22;;;0.28;100.00
53546;BME280;39432;51.902;10.844;2023-01-25T12:26:52;101009.31;;;0.07;100.00
53546;BME280;39432;51.902;10.844;2023-01-25T12:29:34;101000.28;;;-0.02;100.00
53546;BME280;39432;51.902;10.844;2023-01-25T12:32:09;100999.00;;;0.46;100.00
53546;BME280;39432;51.902;10.844;2023-01-25T12:34:42;100995.13;;;0.05;100.00
53546;BME280;39432;51.902;10.844;2023-01-25T12:37:17;100996.84;;;-0.30;100.00
53546;BME280;39432;51.902;10.844;2023-01-25T12:39:52;100996.41;;;-0.70;100.00
53546;BME280;39432;51.902;10.844;2023-01-25T12:42:24;100992.38;;;-0.39;100.00
53546;BME280;39432;51.902;10.844;2023-01-25T12:45:04;100993.28;;;0.23;100.00
53546;BME280;39432;51.902;10.844;2023-01-25T12:47:39;100989.69;;;0.15;100.00
53546;BME280;39432;51.902;10.844;2023-01-25T12:50:14;100988.66;;;0.34;100.00
53546;BME280;39432;51.902;10.844;2023-01-25T12:52:48;100979.66;;;0.25;100.00
53546;BME280;39432;51.902;10.844;2023-01-25T12:55:19;100969.31;;;-0.06;100.00
53546;BME280;39432;51.902;10.844;2023-01-25T12:57:55;100967.44;;;0.31;100.00
53546;BME280;39432;51.902;10.844;2023-01-25T13:00:33;100965.16;;;0.18;100.00
53546;BME280;39432;51.902;10.844;2023-01-25T13:03:18;100956.63;;;0.22;100.00
53546;BME280;39432;51.902;10.844;2023-01-25T13:05:52;100954.72;;;-0.03;100.00
53546;BME280;39432;51.902;10.844;2023-01-25T13:08:38;100946.75;;;0.31;100.00
53546;BME280;39432;51.902;10.844;2023-01-25T13:11:15;100938.56;;;0.41;100.00